Time,TemperatureF,DewpointF,PressureIn,WindDirection,WindDirectionDegrees,WindSpeedMPH,WindSpeedGustMPH,Humidity,HourlyPrecipIn,Conditions,Clouds,dailyrainin,SolarRadiationWatts/m^2,SoftwareType,DateUTC
2013-02-05 00:01:00,41.8,40.2,29.82,ENE,76,8.6,10.4,94,0.00,RA,,0.00,0.0,WeatherDisplay:10.37,2013-02-05 08:01:00,
2013-02-05 00:06:00,41.8,40.2,29.82,ENE,69,7.8,9.2,94,0.00,RA,,0.00,0.0,WeatherDisplay:10.37,2013-02-05 08:06:00,
2013-02-05 00:11:00,41.9,40.6,29.81,East,86,11.9,13.8,95,0.00,CLR,,0.00,0.0,WeatherDisplay:10.37,2013-02-05 08:11:00,
2013-02-05 00:16:00,42.2,40.9,29.80,ENE,75,11.6,13.8,95,0.00,FEW,,0.00,0.0,WeatherDisplay:10.37,2013-02-05 08:16:00,
2013-02-05 00:21:00,42.5,41.2,29.80,East,82,13.6,17.3,95,0.00,FEW,,0.00,0.0,WeatherDisplay:10.37,2013-02-05 08:21:00,
2013-02-05 00:26:00,42.8,41.5,29.80,East,84,15.7,20.7,95,0.00,FEW,,0.00,0.0,WeatherDisplay:10.37,2013-02-05 08:26:00,
2013-02-05 00:31:00,43.1,41.8,29.80,East,86,18.0,19.6,95,0.00,FEW,,0.00,0.0,WeatherDisplay:10.37,2013-02-05 08:31:00,
2013-02-05 00:36:00,43.2,41.6,29.80,ENE,74,15.1,16.1,94,0.00,FEW,,0.00,0.0,WeatherDisplay:10.37,2013-02-05 08:36:00,
2013-02-05 00:41:00,43.3,41.7,29.80,East,86,11.4,13.8,94,0.00,FEW,,0.00,0.0,WeatherDisplay:10.37,2013-02-05 08:41:00,
2013-02-05 00:46:00,43.4,41.5,29.80,East,87,10.7,13.8,93,0.00,SCT,,0.00,0.0,WeatherDisplay:10.37,2013-02-05 08:46:00,
2013-02-05 00:51:00,43.4,41.5,29.79,East,89,5.5,8.1,93,0.00,SCT,,0.00,0.0,WeatherDisplay:10.37,2013-02-05 08:51:00,
2013-02-05 00:56:00,43.4,41.5,29.79,ESE,113,4.6,5.8,93,0.00,SCT,,0.00,0.0,WeatherDisplay:10.37,2013-02-05 08:56:00,
2013-02-05 01:01:00,43.5,41.6,29.79,East,88,10.9,12.7,93,0.00,BKN,,0.00,0.0,WeatherDisplay:10.37,2013-02-05 09:01:00,
2013-02-05 01:06:00,43.4,41.5,29.79,ENE,78,7.0,10.4,93,0.00,BKN,,0.00,0.0,WeatherDisplay:10.37,2013-02-05 09:06:00,
2013-02-05 01:11:00,43.4,41.5,29.79,ESE,106,5.0,5.8,93,0.00,BKN,,0.00,0.0,WeatherDisplay:10.37,2013-02-05 09:11:00,
2013-02-05 01:16:00,43.3,41.2,29.79,East,96,4.0,4.6,92,0.00,SCT,,0.00,0.0,WeatherDisplay:10.37,2013-02-05 09:16:00,
2013-02-05 01:21:00,43.3,41.2,29.78,NE,51,5.7,5.8,92,0.00,SCT,,0.00,0.0,WeatherDisplay:10.37,2013-02-05 09:21:00,
2013-02-05 01:26:00,43.2,41.1,29.78,ENE,73,8.1,10.4,92,0.00,SCT,,0.00,0.0,WeatherDisplay:10.37,2013-02-05 09:26:00,
2013-02-05 01:31:00,43.2,41.1,29.78,ENE,71,8.4,10.4,92,0.00,SCT,,0.00,0.0,WeatherDisplay:10.37,2013-02-05 09:31:00,
2013-02-05 01:36:00,43.3,41.2,29.79,East,100,11.7,15.0,92,0.00,SCT,,0.00,0.0,WeatherDisplay:10.37,2013-02-05 09:36:00,
2013-02-05 01:41:00,43.4,41.3,29.78,ESE,108,7.2,10.4,92,0.00,SCT,,0.00,0.0,WeatherDisplay:10.37,2013-02-05 09:41:00,
2013-02-05 01:46:00,43.6,41.4,29.79,SE,130,7.9,12.3,92,0.00,BKN,,0.00,0.0,WeatherDisplay:10.37,2013-02-05 09:46:00,
2013-02-05 01:51:00,43.9,41.7,29.79,SSE,152,14.6,15.0,92,0.00,BKN,,0.00,0.0,WeatherDisplay:10.37,2013-02-05 09:51:00,
2013-02-05 01:56:00,44.4,42.2,29.79,SSE,161,16.5,19.6,92,0.00,BKN,,0.00,0.0,WeatherDisplay:10.37,2013-02-05 09:56:00,
2013-02-05 02:01:00,45.0,42.3,29.79,SSE,161,14.4,17.3,90,0.00,OVC,,0.00,0.0,WeatherDisplay:10.37,2013-02-05 10:01:00,
2013-02-05 02:06:00,45.4,42.4,29.79,SE,139,16.1,18.4,89,0.00,OVC,,0.00,0.0,WeatherDisplay:10.37,2013-02-05 10:06:00,
2013-02-05 02:11:00,45.8,42.5,29.79,SE,128,17.7,25.8,88,0.00,OVC,,0.00,0.0,WeatherDisplay:10.37,2013-02-05 10:11:00,
2013-02-05 02:16:00,46.0,42.7,29.79,SSE,164,14.8,19.6,88,0.00,OVC,,0.00,0.0,WeatherDisplay:10.37,2013-02-05 10:16:00,
2013-02-05 02:21:00,46.2,42.6,29.79,SE,130,15.2,19.6,87,0.00,OVC,,0.00,0.0,WeatherDisplay:10.37,2013-02-05 10:21:00,
2013-02-05 02:26:00,46.3,42.7,29.78,SSE,149,13.9,17.3,87,0.00,OVC,,0.00,0.0,WeatherDisplay:10.37,2013-02-05 10:26:00,
2013-02-05 02:31:00,46.3,42.4,29.78,SSE,149,19.8,21.9,86,0.00,OVC,,0.00,0.0,WeatherDisplay:10.37,2013-02-05 10:31:00,
2013-02-05 02:36:00,46.4,42.5,29.79,SSE,155,23.5,25.3,86,0.00,OVC,,0.00,0.0,WeatherDisplay:10.37,2013-02-05 10:36:00,
2013-02-05 02:41:00,46.4,42.2,29.79,SSE,164,18.9,21.9,85,0.00,OVC,,0.00,0.0,WeatherDisplay:10.37,2013-02-05 10:41:00,
2013-02-05 02:46:00,46.4,42.2,29.79,SSE,165,21.0,21.3,85,0.00,BKN,,0.00,0.0,WeatherDisplay:10.37,2013-02-05 10:46:00,
2013-02-05 02:51:00,46.4,42.2,29.79,SSE,157,16.5,21.3,85,0.00,BKN,,0.00,0.0,WeatherDisplay:10.37,2013-02-05 10:51:00,
2013-02-05 02:56:00,46.3,42.1,29.80,South,179,23.4,24.6,85,0.00,BKN,,0.00,0.0,WeatherDisplay:10.37,2013-02-05 10:56:00,
2013-02-05 03:01:00,46.3,42.1,29.80,SSE,165,20.2,24.2,85,0.00,BKN,,0.00,0.0,WeatherDisplay:10.37,2013-02-05 11:01:00,
2013-02-05 03:06:00,46.3,42.1,29.81,SSE,160,12.8,16.1,85,0.00,BKN,,0.00,0.0,WeatherDisplay:10.37,2013-02-05 11:06:00,
2013-02-05 03:11:00,46.2,42.0,29.80,SSE,152,13.8,19.6,85,0.00,BKN,,0.00,0.0,WeatherDisplay:10.37,2013-02-05 11:11:00,
2013-02-05 03:16:00,46.1,41.9,29.80,SSE,159,17.4,19.6,85,0.00,SCT,,0.00,0.0,WeatherDisplay:10.37,2013-02-05 11:16:00,
2013-02-05 03:21:00,46.2,42.0,29.80,SSE,153,15.3,17.3,85,0.00,SCT,,0.00,0.0,WeatherDisplay:10.37,2013-02-05 11:21:00,
2013-02-05 03:26:00,46.1,41.9,29.81,SSW,193,21.0,21.0,85,0.00,SCT,,0.00,0.0,WeatherDisplay:10.37,2013-02-05 11:26:00,
2013-02-05 03:31:00,46.2,41.7,29.81,South,182,16.3,19.6,84,0.00,SCT,,0.00,0.0,WeatherDisplay:10.37,2013-02-05 11:31:00,
2013-02-05 03:36:00,46.2,41.3,29.81,South,173,18.0,18.0,83,0.00,SCT,,0.00,0.0,WeatherDisplay:10.37,2013-02-05 11:36:00,
2013-02-05 03:41:00,46.3,41.4,29.81,SSE,164,18.4,19.6,83,0.00,SCT,,0.00,0.0,WeatherDisplay:10.37,2013-02-05 11:41:00,
2013-02-05 03:46:00,46.3,41.4,29.81,SSE,154,18.3,21.9,83,0.00,BKN,,0.00,0.0,WeatherDisplay:10.37,2013-02-05 11:46:00,
2013-02-05 03:51:00,46.3,41.4,29.80,SSE,159,16.2,21.3,83,0.00,BKN,,0.00,0.0,WeatherDisplay:10.37,2013-02-05 11:51:00,
2013-02-05 03:56:00,46.3,41.4,29.80,South,171,20.7,23.0,83,0.00,BKN,,0.00,0.0,WeatherDisplay:10.37,2013-02-05 11:56:00,
2013-02-05 04:01:00,46.3,41.4,29.80,SSE,161,18.9,25.3,83,0.00,-RA,,0.00,0.0,WeatherDisplay:10.37,2013-02-05 12:01:00,
2013-02-05 04:06:00,46.2,41.3,29.80,SSE,164,21.3,21.3,83,0.00,-RA,,0.00,0.0,WeatherDisplay:10.37,2013-02-05 12:06:00,
2013-02-05 04:11:00,46.2,41.7,29.79,SE,146,16.3,19.6,84,0.00,-RA,,0.00,0.0,WeatherDisplay:10.37,2013-02-05 12:11:00,
2013-02-05 04:16:00,46.1,41.9,29.79,SSE,155,18.6,21.9,85,0.00,-RA,,0.00,0.0,WeatherDisplay:10.37,2013-02-05 12:16:00,
2013-02-05 04:21:00,45.8,41.9,29.79,SSE,149,18.6,21.9,86,0.00,-RA,,0.00,0.0,WeatherDisplay:10.37,2013-02-05 12:21:00,
2013-02-05 04:26:00,45.6,42.0,29.78,SSE,153,23.9,28.8,87,0.00,-RA,,0.00,0.0,WeatherDisplay:10.37,2013-02-05 12:26:00,
2013-02-05 04:31:00,45.4,42.1,29.78,SE,146,24.0,31.1,88,0.01,-RA,,0.01,0.0,WeatherDisplay:10.37,2013-02-05 12:31:00,
2013-02-05 04:36:00,45.2,42.2,29.77,SSE,153,24.9,29.1,89,0.02,-RA,,0.02,0.0,WeatherDisplay:10.37,2013-02-05 12:36:00,
2013-02-05 04:41:00,45.0,42.0,29.78,SE,134,21.3,24.2,89,0.02,-RA,,0.02,0.0,WeatherDisplay:10.37,2013-02-05 12:41:00,
2013-02-05 04:46:00,44.9,42.2,29.77,SSE,148,25.7,28.8,90,0.02,-RA,,0.02,0.0,WeatherDisplay:10.37,2013-02-05 12:46:00,
2013-02-05 04:51:00,44.8,42.1,29.77,South,187,24.5,27.6,90,0.02,-RA,,0.02,0.0,WeatherDisplay:10.37,2013-02-05 12:51:00,
2013-02-05 04:57:00,44.7,42.0,29.77,SSE,155,14.2,21.3,90,0.02,-RA,,0.02,0.0,WeatherDisplay:10.37,2013-02-05 12:57:00,
2013-02-05 05:02:00,44.7,42.0,29.77,SSE,155,22.9,28.8,90,0.02,RA,,0.02,0.0,WeatherDisplay:10.37,2013-02-05 13:02:00,
2013-02-05 05:07:00,44.8,42.1,29.77,SSE,147,20.7,26.5,90,0.02,CLR,,0.02,0.0,WeatherDisplay:10.37,2013-02-05 13:07:00,
2013-02-05 05:12:00,44.8,42.1,29.77,SSE,156,21.5,24.2,90,0.02,CLR,,0.02,0.0,WeatherDisplay:10.37,2013-02-05 13:12:00,
2013-02-05 05:17:00,44.8,42.1,29.77,SSE,158,19.4,25.8,90,0.02,CLR,,0.02,0.0,WeatherDisplay:10.37,2013-02-05 13:17:00,
2013-02-05 05:22:00,44.9,41.9,29.77,SSE,160,21.3,21.3,89,0.03,RA,,0.03,0.0,WeatherDisplay:10.37,2013-02-05 13:22:00,
2013-02-05 05:27:00,44.9,41.9,29.77,South,169,18.7,25.3,89,0.03,RA,,0.03,0.0,WeatherDisplay:10.37,2013-02-05 13:27:00,
2013-02-05 05:32:00,44.9,41.9,29.77,SSE,151,21.4,24.6,89,0.02,FEW,,0.03,0.0,WeatherDisplay:10.37,2013-02-05 13:32:00,
2013-02-05 05:37:00,45.0,42.0,29.77,SSE,161,24.7,29.9,89,0.02,FEW,,0.03,0.0,WeatherDisplay:10.37,2013-02-05 13:37:00,
2013-02-05 05:42:00,45.0,42.0,29.77,South,176,23.3,27.6,89,0.01,FEW,,0.03,0.0,WeatherDisplay:10.37,2013-02-05 13:42:00,
2013-02-05 05:47:00,45.1,41.8,29.77,SSE,149,22.3,27.6,88,0.01,SCT,,0.03,0.0,WeatherDisplay:10.37,2013-02-05 13:47:00,
2013-02-05 05:52:00,45.1,41.8,29.77,SSE,158,22.6,23.0,88,0.01,SCT,,0.03,0.0,WeatherDisplay:10.37,2013-02-05 13:52:00,
2013-02-05 05:57:00,45.1,41.8,29.77,SSE,155,20.6,23.0,88,0.01,SCT,,0.03,0.0,WeatherDisplay:10.37,2013-02-05 13:57:00,
2013-02-05 06:02:00,45.1,41.8,29.77,SSE,158,21.8,24.2,88,0.01,SCT,,0.03,0.0,WeatherDisplay:10.37,2013-02-05 14:02:00,
2013-02-05 06:07:00,45.1,41.8,29.77,SSE,168,20.7,24.2,88,0.01,SCT,,0.03,0.0,WeatherDisplay:10.37,2013-02-05 14:07:00,
2013-02-05 06:12:00,45.1,41.8,29.77,SSE,157,26.3,34.5,88,0.01,SCT,,0.03,0.0,WeatherDisplay:10.37,2013-02-05 14:12:00,
2013-02-05 06:17:00,45.1,41.8,29.77,SSE,152,20.7,25.3,88,0.01,SCT,,0.03,0.0,WeatherDisplay:10.37,2013-02-05 14:17:00,
2013-02-05 06:22:00,45.1,41.8,29.77,SSE,165,23.6,24.2,88,0.00,SCT,,0.03,0.0,WeatherDisplay:10.37,2013-02-05 14:22:00,
2013-02-05 06:27:00,45.1,41.5,29.77,SE,146,23.2,26.5,87,0.00,SCT,,0.03,0.0,WeatherDisplay:10.37,2013-02-05 14:27:00,
2013-02-05 06:32:00,45.1,41.5,29.77,SSE,165,23.7,28.8,87,0.00,SCT,,0.03,0.0,WeatherDisplay:10.37,2013-02-05 14:32:00,
2013-02-05 06:37:00,45.0,41.4,29.77,SSE,166,23.6,26.5,87,0.00,SCT,,0.03,0.0,WeatherDisplay:10.37,2013-02-05 14:37:00,
2013-02-05 06:42:00,45.0,41.4,29.77,SSE,161,26.6,29.9,87,0.00,SCT,,0.03,0.0,WeatherDisplay:10.37,2013-02-05 14:42:00,
2013-02-05 06:47:00,45.0,41.4,29.77,SE,136,18.1,21.9,87,0.00,SCT,,0.03,0.0,WeatherDisplay:10.37,2013-02-05 14:47:00,
2013-02-05 06:52:00,45.0,41.4,29.77,SSE,150,30.3,35.7,87,0.00,SCT,,0.03,0.0,WeatherDisplay:10.37,2013-02-05 14:52:00,
2013-02-05 06:57:00,45.0,41.4,29.77,SE,144,20.4,21.9,87,0.00,SCT,,0.03,0.0,WeatherDisplay:10.37,2013-02-05 14:57:00,
2013-02-05 07:02:00,44.9,41.3,29.77,SSE,165,25.9,33.6,87,0.00,BKN,,0.03,0.0,WeatherDisplay:10.37,2013-02-05 15:02:00,
2013-02-05 07:07:00,44.9,41.3,29.77,SSE,163,21.4,27.6,87,0.00,BKN,,0.03,0.0,WeatherDisplay:10.37,2013-02-05 15:07:00,
2013-02-05 07:12:00,44.9,41.3,29.77,SSE,155,24.4,33.4,87,0.00,BKN,,0.03,0.0,WeatherDisplay:10.37,2013-02-05 15:12:00,
2013-02-05 07:17:00,44.9,41.3,29.77,SSE,163,22.2,25.3,87,0.00,BKN,,0.03,0.0,WeatherDisplay:10.37,2013-02-05 15:17:00,
2013-02-05 07:23:00,44.9,41.0,29.78,South,178,28.0,28.8,86,0.00,BKN,,0.03,5.8,WeatherDisplay:10.37,2013-02-05 15:23:00,
2013-02-05 07:28:00,44.9,41.3,29.78,SE,138,21.7,27.6,87,0.00,BKN,,0.03,5.8,WeatherDisplay:10.37,2013-02-05 15:28:00,
2013-02-05 07:33:00,44.9,41.3,29.78,SSE,157,19.9,27.6,87,0.00,BKN,,0.03,5.8,WeatherDisplay:10.37,2013-02-05 15:33:00,
2013-02-05 07:38:00,44.9,41.0,29.78,SSE,168,25.3,28.8,86,0.00,BKN,,0.03,5.8,WeatherDisplay:10.37,2013-02-05 15:38:00,
2013-02-05 07:43:00,44.9,41.0,29.78,SSE,159,19.8,25.3,86,0.00,BKN,,0.03,8.0,WeatherDisplay:10.37,2013-02-05 15:43:00,
2013-02-05 07:48:00,44.9,41.0,29.78,SSE,165,21.9,25.3,86,0.00,OVC,,0.03,8.0,WeatherDisplay:10.37,2013-02-05 15:48:00,
2013-02-05 07:53:00,44.9,41.0,29.79,SSE,167,27.9,28.8,86,0.00,OVC,,0.03,13.8,WeatherDisplay:10.37,2013-02-05 15:53:00,
2013-02-05 07:58:00,44.9,41.0,29.79,SSE,151,28.5,32.2,86,0.00,OVC,,0.03,18.4,WeatherDisplay:10.37,2013-02-05 15:58:00,
2013-02-05 08:03:00,44.9,41.0,29.79,SSE,164,25.6,27.6,86,0.00,BKN,,0.03,20.7,WeatherDisplay:10.37,2013-02-05 16:03:00,
2013-02-05 08:08:00,44.9,41.0,29.79,SSE,155,19.3,23.0,86,0.00,BKN,,0.03,18.4,WeatherDisplay:10.37,2013-02-05 16:08:00,
2013-02-05 08:13:00,45.0,41.1,29.79,SE,130,24.6,26.5,86,0.00,BKN,,0.03,20.7,WeatherDisplay:10.37,2013-02-05 16:13:00,
2013-02-05 08:18:00,44.9,41.0,29.79,SSE,150,21.7,24.2,86,0.00,BKN,,0.03,21.8,WeatherDisplay:10.37,2013-02-05 16:18:00,
2013-02-05 08:23:00,45.0,41.1,29.80,SSE,163,21.0,24.6,86,0.00,BKN,,0.03,29.9,WeatherDisplay:10.37,2013-02-05 16:23:00,
2013-02-05 08:28:00,45.0,41.1,29.80,SSE,152,23.1,26.9,86,0.00,BKN,,0.03,29.9,WeatherDisplay:10.37,2013-02-05 16:28:00,
2013-02-05 08:33:00,45.0,41.1,29.80,SE,144,25.5,28.8,86,0.00,BKN,,0.03,40.3,WeatherDisplay:10.37,2013-02-05 16:33:00,
2013-02-05 08:38:00,45.0,41.4,29.80,SE,146,21.6,24.2,87,0.00,BKN,,0.03,56.4,WeatherDisplay:10.37,2013-02-05 16:38:00,
2013-02-05 08:43:00,45.0,41.4,29.80,South,170,23.2,26.5,87,0.00,BKN,,0.03,64.4,WeatherDisplay:10.37,2013-02-05 16:43:00,
2013-02-05 08:48:00,45.1,41.5,29.80,SSE,148,22.6,24.2,87,0.00,SCT,,0.03,72.4,WeatherDisplay:10.37,2013-02-05 16:48:00,
2013-02-05 08:53:00,45.1,41.5,29.80,SSE,159,24.3,26.5,87,0.00,SCT,,0.03,80.5,WeatherDisplay:10.37,2013-02-05 16:53:00,
2013-02-05 08:58:00,45.1,41.5,29.80,SSE,163,21.8,25.3,87,0.00,SCT,,0.03,112.7,WeatherDisplay:10.37,2013-02-05 16:58:00,
2013-02-05 09:03:00,45.2,41.6,29.80,SSE,165,23.9,26.5,87,0.00,SCT,,0.03,125.4,WeatherDisplay:10.37,2013-02-05 17:03:00,
2013-02-05 09:08:00,45.3,41.4,29.80,South,171,21.7,27.6,86,0.00,SCT,,0.03,101.2,WeatherDisplay:10.37,2013-02-05 17:08:00,
2013-02-05 09:13:00,45.4,41.5,29.81,SSE,151,23.8,26.5,86,0.00,SCT,,0.03,127.7,WeatherDisplay:10.37,2013-02-05 17:13:00,
2013-02-05 09:18:00,45.4,41.5,29.80,South,191,19.6,21.9,86,0.00,OVC,,0.03,112.7,WeatherDisplay:10.37,2013-02-05 17:18:00,
2013-02-05 09:23:00,45.4,41.5,29.81,SSE,160,18.7,21.9,86,0.00,OVC,,0.03,101.2,WeatherDisplay:10.37,2013-02-05 17:23:00,
2013-02-05 09:28:00,45.5,41.6,29.81,SSE,168,20.8,23.0,86,0.00,OVC,,0.03,101.2,WeatherDisplay:10.37,2013-02-05 17:28:00,
2013-02-05 09:33:00,45.5,41.9,29.81,SSE,159,20.8,23.0,87,0.00,OVC,,0.03,87.4,WeatherDisplay:10.37,2013-02-05 17:33:00,
2013-02-05 09:38:00,45.6,42.0,29.81,South,170,18.8,18.8,87,0.00,OVC,,0.03,101.2,WeatherDisplay:10.37,2013-02-05 17:38:00,
2013-02-05 09:43:00,45.6,42.0,29.81,SSE,164,20.7,26.5,87,0.00,OVC,,0.03,101.2,WeatherDisplay:10.37,2013-02-05 17:43:00,
2013-02-05 09:48:00,45.6,41.7,29.81,SSE,163,22.6,25.3,86,0.00,BKN,,0.03,82.8,WeatherDisplay:10.37,2013-02-05 17:48:00,
2013-02-05 09:53:00,45.6,41.7,29.81,South,172,20.4,23.0,86,0.00,BKN,,0.03,42.6,WeatherDisplay:10.37,2013-02-05 17:53:00,
2013-02-05 09:58:00,45.6,41.7,29.81,SSE,164,18.5,20.7,86,0.00,BKN,,0.03,50.6,WeatherDisplay:10.37,2013-02-05 17:58:00,
2013-02-05 10:03:00,45.6,41.7,29.81,SSE,163,15.3,19.0,86,0.00,SCT,,0.03,44.8,WeatherDisplay:10.37,2013-02-05 18:03:00,
2013-02-05 10:08:00,45.6,41.7,29.81,SE,144,14.4,19.6,86,0.00,SCT,,0.03,48.3,WeatherDisplay:10.37,2013-02-05 18:08:00,
2013-02-05 10:13:00,45.6,41.7,29.81,SSE,159,15.2,19.6,86,0.00,SCT,,0.03,46.0,WeatherDisplay:10.37,2013-02-05 18:13:00,
2013-02-05 10:18:00,45.6,41.7,29.81,SSE,155,15.8,17.3,86,0.00,CLR,,0.03,42.6,WeatherDisplay:10.37,2013-02-05 18:18:00,
2013-02-05 10:23:00,45.6,41.7,29.81,SSE,150,17.7,21.9,86,0.00,CLR,,0.03,36.8,WeatherDisplay:10.37,2013-02-05 18:23:00,
2013-02-05 10:28:00,45.6,41.7,29.81,SSE,153,19.1,19.1,86,0.00,CLR,,0.03,40.3,WeatherDisplay:10.37,2013-02-05 18:28:00,
2013-02-05 10:33:00,45.6,41.7,29.81,SSE,156,19.3,19.3,86,0.00,CLR,,0.03,46.0,WeatherDisplay:10.37,2013-02-05 18:33:00,
2013-02-05 10:38:00,45.6,41.7,29.81,SSE,148,14.5,16.1,86,0.00,CLR,,0.03,50.6,WeatherDisplay:10.37,2013-02-05 18:38:00,
2013-02-05 10:43:00,45.6,41.7,29.80,SSE,157,14.7,19.6,86,0.00,CLR,,0.03,77.1,WeatherDisplay:10.37,2013-02-05 18:43:00,
2013-02-05 10:48:00,45.6,41.7,29.80,SE,141,18.8,20.7,86,0.00,CLR,,0.03,90.8,WeatherDisplay:10.37,2013-02-05 18:48:00,
2013-02-05 10:53:00,45.7,41.8,29.80,SE,144,14.5,16.1,86,0.00,CLR,,0.03,104.7,WeatherDisplay:10.37,2013-02-05 18:53:00,
2013-02-05 10:58:00,45.7,42.1,29.80,SSE,161,14.9,22.4,87,0.00,CLR,,0.03,87.4,WeatherDisplay:10.37,2013-02-05 18:58:00,
2013-02-05 11:03:00,45.7,41.8,29.80,SE,144,19.9,20.7,86,0.00,CLR,,0.03,74.8,WeatherDisplay:10.37,2013-02-05 19:03:00,
2013-02-05 11:08:00,45.8,41.9,29.80,SSE,151,13.5,17.3,86,0.00,CLR,,0.03,66.7,WeatherDisplay:10.37,2013-02-05 19:08:00,
2013-02-05 11:13:00,45.8,42.2,29.80,SE,145,13.0,16.1,87,0.00,CLR,,0.03,98.9,WeatherDisplay:10.37,2013-02-05 19:13:00,
2013-02-05 11:18:00,45.8,42.2,29.80,SSE,148,14.7,19.6,87,0.00,CLR,,0.03,95.4,WeatherDisplay:10.37,2013-02-05 19:18:00,
2013-02-05 11:23:00,45.8,41.9,29.80,SE,130,15.0,17.9,86,0.00,CLR,,0.03,74.8,WeatherDisplay:10.37,2013-02-05 19:23:00,
2013-02-05 11:28:00,45.9,42.0,29.80,South,181,18.6,20.7,86,0.00,CLR,,0.03,71.3,WeatherDisplay:10.37,2013-02-05 19:28:00,
2013-02-05 11:33:00,45.9,42.0,29.80,SSE,152,15.7,18.4,86,0.00,FEW,,0.03,54.0,WeatherDisplay:10.37,2013-02-05 19:33:00,
2013-02-05 11:38:00,45.9,42.0,29.80,SSE,150,15.1,18.4,86,0.00,FEW,,0.03,74.8,WeatherDisplay:10.37,2013-02-05 19:38:00,
2013-02-05 11:43:00,45.9,42.0,29.80,SSE,163,17.2,23.0,86,0.00,FEW,,0.03,96.6,WeatherDisplay:10.37,2013-02-05 19:43:00,
2013-02-05 11:48:00,45.9,42.0,29.80,SSE,152,13.4,19.0,86,0.00,BKN,,0.03,96.6,WeatherDisplay:10.37,2013-02-05 19:48:00,
2013-02-05 11:53:00,46.0,42.1,29.80,South,170,19.0,21.9,86,0.00,BKN,,0.03,82.8,WeatherDisplay:10.37,2013-02-05 19:53:00,
2013-02-05 11:58:00,46.0,42.1,29.80,SSE,165,14.4,18.4,86,0.00,BKN,,0.03,64.4,WeatherDisplay:10.37,2013-02-05 19:58:00,
2013-02-05 12:03:00,46.0,42.1,29.80,SSE,162,12.9,15.0,86,0.00,OVC,,0.03,48.3,WeatherDisplay:10.37,2013-02-05 20:03:00,
2013-02-05 12:08:00,45.9,42.0,29.80,SSE,159,15.4,16.1,86,0.00,OVC,,0.03,44.8,WeatherDisplay:10.37,2013-02-05 20:08:00,
2013-02-05 12:13:00,45.9,42.0,29.79,SSE,151,15.7,18.4,86,0.00,OVC,,0.03,72.4,WeatherDisplay:10.37,2013-02-05 20:13:00,
2013-02-05 12:18:00,45.9,42.0,29.79,SSE,151,12.5,17.3,86,0.00,OVC,,0.03,79.4,WeatherDisplay:10.37,2013-02-05 20:18:00,
2013-02-05 12:23:00,46.0,42.1,29.79,SSE,163,21.2,21.9,86,0.00,OVC,,0.03,98.9,WeatherDisplay:10.37,2013-02-05 20:23:00,
2013-02-05 12:28:00,46.1,42.2,29.78,SSE,161,16.0,19.6,86,0.00,OVC,,0.03,88.6,WeatherDisplay:10.37,2013-02-05 20:28:00,
2013-02-05 12:33:00,46.1,42.2,29.78,SSE,163,17.2,19.6,86,0.00,OVC,,0.03,98.9,WeatherDisplay:10.37,2013-02-05 20:33:00,
2013-02-05 12:38:00,46.2,42.0,29.77,South,169,23.4,24.2,85,0.00,OVC,,0.03,90.8,WeatherDisplay:10.37,2013-02-05 20:38:00,
2013-02-05 12:43:00,46.3,42.1,29.77,SSE,152,22.2,24.2,85,0.00,OVC,,0.03,112.7,WeatherDisplay:10.37,2013-02-05 20:43:00,
2013-02-05 12:48:00,46.4,42.2,29.77,SSE,161,17.7,21.9,85,0.00,OVC,,0.03,133.4,WeatherDisplay:10.37,2013-02-05 20:48:00,
2013-02-05 12:53:00,46.5,42.3,29.77,SSE,165,16.2,20.7,85,0.00,OVC,,0.03,143.8,WeatherDisplay:10.37,2013-02-05 20:53:00,
2013-02-05 12:59:00,46.5,42.3,29.77,South,186,17.9,20.7,85,0.00,OVC,,0.03,147.2,WeatherDisplay:10.37,2013-02-05 20:59:00,
2013-02-05 13:04:00,46.6,42.4,29.77,South,175,19.4,20.7,85,0.00,OVC,,0.03,95.4,WeatherDisplay:10.37,2013-02-05 21:04:00,
2013-02-05 13:09:00,46.6,42.4,29.77,SE,140,16.3,19.0,85,0.00,OVC,,0.03,101.2,WeatherDisplay:10.37,2013-02-05 21:09:00,
2013-02-05 13:14:00,46.7,42.4,29.77,SSE,161,16.3,20.7,85,0.00,OVC,,0.03,80.5,WeatherDisplay:10.37,2013-02-05 21:14:00,
2013-02-05 13:19:00,46.7,42.4,29.77,SSE,161,14.3,19.6,85,0.00,BKN,,0.03,95.4,WeatherDisplay:10.37,2013-02-05 21:19:00,
2013-02-05 13:24:00,46.7,42.4,29.77,South,183,14.9,17.3,85,0.00,BKN,,0.03,90.8,WeatherDisplay:10.37,2013-02-05 21:24:00,
2013-02-05 13:29:00,46.7,42.4,29.77,SSE,157,12.4,13.8,85,0.00,BKN,,0.03,125.4,WeatherDisplay:10.37,2013-02-05 21:29:00,
2013-02-05 13:34:00,46.8,42.5,29.77,SSE,167,9.2,13.8,85,0.00,BKN,,0.03,112.7,WeatherDisplay:10.37,2013-02-05 21:34:00,
2013-02-05 13:39:00,46.8,42.5,29.76,SSE,155,14.8,17.3,85,0.00,BKN,,0.03,101.2,WeatherDisplay:10.37,2013-02-05 21:39:00,
2013-02-05 13:44:00,46.8,42.2,29.76,SSE,152,20.3,23.0,84,0.00,BKN,,0.03,149.5,WeatherDisplay:10.37,2013-02-05 21:44:00,
2013-02-05 13:49:00,46.9,42.3,29.76,SSE,165,14.6,19.0,84,0.00,SCT,,0.03,163.3,WeatherDisplay:10.37,2013-02-05 21:49:00,
2013-02-05 13:54:00,47.0,42.1,29.76,SSE,167,17.7,20.7,83,0.00,SCT,,0.03,205.9,WeatherDisplay:10.37,2013-02-05 21:54:00,
2013-02-05 13:59:00,47.0,42.1,29.76,SSE,159,20.3,25.8,83,0.00,SCT,,0.03,216.2,WeatherDisplay:10.37,2013-02-05 21:59:00,
2013-02-05 14:04:00,47.1,42.2,29.75,SSE,167,20.3,24.2,83,0.00,SCT,,0.03,194.4,WeatherDisplay:10.37,2013-02-05 22:04:00,
2013-02-05 14:09:00,47.0,42.4,29.75,SSE,161,20.2,21.9,84,0.00,SCT,,0.03,171.4,WeatherDisplay:10.37,2013-02-05 22:09:00,
2013-02-05 14:14:00,47.0,42.4,29.75,SSE,167,21.8,21.9,84,0.00,SCT,,0.03,147.2,WeatherDisplay:10.37,2013-02-05 22:14:00,
2013-02-05 14:19:00,47.0,42.4,29.75,SSE,166,18.1,21.9,84,0.00,FEW,,0.03,146.1,WeatherDisplay:10.37,2013-02-05 22:19:00,
2013-02-05 14:24:00,46.9,42.3,29.76,SSE,167,22.8,27.6,84,0.00,FEW,,0.03,147.2,WeatherDisplay:10.37,2013-02-05 22:24:00,
2013-02-05 14:29:00,46.9,42.3,29.75,SSE,154,19.1,25.3,84,0.00,FEW,,0.03,170.2,WeatherDisplay:10.37,2013-02-05 22:29:00,
2013-02-05 14:34:00,46.9,42.3,29.75,SSE,157,20.2,21.9,84,0.00,FEW,,0.03,141.4,WeatherDisplay:10.37,2013-02-05 22:34:00,
2013-02-05 14:39:00,46.8,42.2,29.76,SSE,159,19.1,23.0,84,0.00,FEW,,0.03,131.1,WeatherDisplay:10.37,2013-02-05 22:39:00,
2013-02-05 14:44:00,46.9,42.3,29.76,SSE,161,20.9,25.3,84,0.00,FEW,,0.03,151.8,WeatherDisplay:10.37,2013-02-05 22:44:00,
2013-02-05 14:49:00,47.0,42.1,29.76,SSE,150,22.3,26.9,83,0.00,CLR,,0.03,143.8,WeatherDisplay:10.37,2013-02-05 22:49:00,
2013-02-05 14:54:00,47.0,42.1,29.76,SSE,158,21.6,25.3,83,0.00,CLR,,0.03,115.0,WeatherDisplay:10.37,2013-02-05 22:54:00,
2013-02-05 14:59:00,47.1,41.9,29.76,SSW,196,21.9,24.2,82,0.00,CLR,,0.03,82.8,WeatherDisplay:10.37,2013-02-05 22:59:00,
2013-02-05 15:04:00,47.0,41.8,29.76,SSE,161,25.6,27.6,82,0.00,FEW,,0.03,71.3,WeatherDisplay:10.37,2013-02-05 23:04:00,
2013-02-05 15:09:00,47.1,41.9,29.75,South,172,24.1,27.6,82,0.00,FEW,,0.03,72.4,WeatherDisplay:10.37,2013-02-05 23:09:00,
2013-02-05 15:14:00,47.1,41.9,29.76,South,172,23.0,24.2,82,0.00,FEW,,0.03,64.4,WeatherDisplay:10.37,2013-02-05 23:14:00,
2013-02-05 15:19:00,47.1,41.9,29.76,SSE,157,21.6,21.9,82,0.00,FEW,,0.03,72.4,WeatherDisplay:10.37,2013-02-05 23:19:00,
2013-02-05 15:24:00,47.1,41.9,29.76,SSE,148,18.5,21.9,82,0.00,FEW,,0.03,62.1,WeatherDisplay:10.37,2013-02-05 23:24:00,
2013-02-05 15:29:00,47.2,42.0,29.77,SSE,157,17.4,19.6,82,0.00,FEW,,0.03,50.6,WeatherDisplay:10.37,2013-02-05 23:29:00,
2013-02-05 15:34:00,47.2,42.0,29.77,SSE,155,14.7,19.6,82,0.00,FEW,,0.03,37.9,WeatherDisplay:10.37,2013-02-05 23:34:00,
2013-02-05 15:39:00,47.1,41.9,29.76,SSE,159,23.0,23.0,82,0.00,FEW,,0.03,50.6,WeatherDisplay:10.37,2013-02-05 23:39:00,
2013-02-05 15:44:00,47.1,41.9,29.76,SE,141,16.4,19.6,82,0.00,FEW,,0.03,72.4,WeatherDisplay:10.37,2013-02-05 23:44:00,
2013-02-05 15:49:00,47.1,41.9,29.76,SSE,161,17.1,19.6,82,0.00,CLR,,0.03,72.4,WeatherDisplay:10.37,2013-02-05 23:49:00,
2013-02-05 15:54:00,47.1,41.9,29.75,SE,142,16.1,21.9,82,0.00,CLR,,0.03,103.5,WeatherDisplay:10.37,2013-02-05 23:54:00,
2013-02-05 15:59:00,47.1,41.9,29.76,SSE,161,20.0,21.9,82,0.00,CLR,,0.03,90.8,WeatherDisplay:10.37,2013-02-05 23:59:00,
2013-02-05 16:04:00,47.1,42.2,29.76,SE,139,19.6,21.9,83,0.00,FEW,,0.03,90.8,WeatherDisplay:10.37,2013-02-06 00:04:00,
2013-02-05 16:09:00,47.1,42.2,29.75,SSE,150,19.0,21.9,83,0.00,FEW,,0.03,87.4,WeatherDisplay:10.37,2013-02-06 00:09:00,
2013-02-05 16:14:00,47.1,42.2,29.75,SE,146,20.1,21.9,83,0.00,FEW,,0.03,77.1,WeatherDisplay:10.37,2013-02-06 00:14:00,
2013-02-05 16:19:00,47.0,42.1,29.75,SE,141,21.3,24.2,83,0.00,FEW,,0.03,62.1,WeatherDisplay:10.37,2013-02-06 00:19:00,
2013-02-05 16:24:00,47.0,42.1,29.75,SSE,155,21.7,21.9,83,0.00,FEW,,0.03,44.8,WeatherDisplay:10.37,2013-02-06 00:24:00,
2013-02-05 16:29:00,47.1,41.9,29.75,SSE,158,24.3,27.6,82,0.00,FEW,,0.03,37.9,WeatherDisplay:10.37,2013-02-06 00:29:00,
2013-02-05 16:34:00,47.2,42.0,29.75,SSE,148,22.6,22.6,82,0.00,FEW,,0.03,21.8,WeatherDisplay:10.37,2013-02-06 00:34:00,
2013-02-05 16:39:00,47.2,42.0,29.75,SSE,155,15.7,19.6,82,0.00,FEW,,0.03,18.4,WeatherDisplay:10.37,2013-02-06 00:39:00,
2013-02-05 16:44:00,47.2,42.0,29.74,SSE,157,17.3,18.4,82,0.00,FEW,,0.03,18.4,WeatherDisplay:10.37,2013-02-06 00:44:00,
2013-02-05 16:49:00,47.2,42.0,29.74,SSE,157,17.9,24.2,82,0.00,SCT,,0.03,12.6,WeatherDisplay:10.37,2013-02-06 00:49:00,
2013-02-05 16:54:00,47.2,42.0,29.74,SSE,165,18.1,24.2,82,0.00,SCT,,0.03,10.4,WeatherDisplay:10.37,2013-02-06 00:54:00,
2013-02-05 16:59:00,47.2,42.0,29.75,SSE,157,21.7,25.3,82,0.00,SCT,,0.03,5.8,WeatherDisplay:10.37,2013-02-06 00:59:00,
2013-02-05 17:04:00,47.1,41.9,29.75,SSE,159,20.0,28.0,82,0.00,FEW,,0.04,5.8,WeatherDisplay:10.37,2013-02-06 01:04:00,
2013-02-05 17:09:00,47.1,41.9,29.75,SSE,164,14.0,24.0,82,0.00,FEW,,0.04,5.8,WeatherDisplay:10.37,2013-02-06 01:09:00,
2013-02-05 17:14:00,47.0,41.8,29.75,South,170,26.0,31.0,82,0.00,FEW,,0.04,5.8,WeatherDisplay:10.37,2013-02-06 01:14:00,
2013-02-05 17:19:00,47.0,41.8,29.75,SSE,161,17.4,21.9,82,0.00,-RA,,0.03,5.8,WeatherDisplay:10.37,2013-02-06 01:19:00,
2013-02-05 17:24:00,47.0,42.1,29.75,South,188,23.4,29.9,83,0.00,-RA,,0.03,0.0,WeatherDisplay:10.37,2013-02-06 01:24:00,
2013-02-05 17:29:00,46.8,42.2,29.76,South,173,25.1,27.6,84,0.00,-RA,,0.03,0.0,WeatherDisplay:10.37,2013-02-06 01:29:00,
2013-02-05 17:34:00,46.6,42.4,29.76,South,171,16.6,20.7,85,0.01,-RA,,0.05,0.0,WeatherDisplay:10.37,2013-02-06 01:34:00,
2013-02-05 17:39:00,46.3,42.4,29.76,South,177,13.8,17.3,86,0.01,-RA,,0.05,0.0,WeatherDisplay:10.37,2013-02-06 01:39:00,
2013-02-05 17:44:00,46.1,42.5,29.76,South,190,18.2,21.9,87,0.01,-RA,,0.06,0.0,WeatherDisplay:10.37,2013-02-06 01:44:00,
2013-02-05 17:49:00,45.8,42.5,29.76,South,189,19.4,21.9,88,0.02,-RA,,0.06,0.0,WeatherDisplay:10.37,2013-02-06 01:49:00,
2013-02-05 17:54:00,45.7,42.7,29.75,South,184,23.1,28.8,89,0.02,-RA,,0.06,0.0,WeatherDisplay:10.37,2013-02-06 01:54:00,
2013-02-05 17:59:00,45.6,42.6,29.75,South,179,24.0,30.0,89,0.00,-RA,,0.06,0.0,WeatherDisplay:10.37,2013-02-06 01:59:00,
2013-02-05 18:04:00,45.5,42.5,29.75,SSW,192,25.2,27.6,89,0.02,-RA,,0.06,0.0,WeatherDisplay:10.37,2013-02-06 02:04:00,
2013-02-05 18:09:00,45.5,42.5,29.74,South,187,27.6,28.8,89,0.02,-RA,,0.06,0.0,WeatherDisplay:10.37,2013-02-06 02:09:00,
2013-02-05 18:14:00,45.5,42.5,29.75,SSW,198,22.8,24.2,89,0.02,-RA,,0.06,0.0,WeatherDisplay:10.37,2013-02-06 02:14:00,
2013-02-05 18:19:00,45.6,42.6,29.75,South,177,23.9,26.5,89,0.02,CLR,,0.06,0.0,WeatherDisplay:10.37,2013-02-06 02:19:00,
2013-02-05 18:24:00,45.6,42.6,29.76,South,181,19.3,25.3,89,0.02,CLR,,0.06,0.0,WeatherDisplay:10.37,2013-02-06 02:24:00,
2013-02-05 18:30:00,45.5,42.5,29.76,South,189,21.5,24.2,89,0.02,CLR,,0.06,0.0,WeatherDisplay:10.37,2013-02-06 02:30:00,
2013-02-05 18:35:00,45.6,42.6,29.76,SSW,198,19.9,24.6,89,0.01,CLR,,0.06,0.0,WeatherDisplay:10.37,2013-02-06 02:35:00,
2013-02-05 18:40:00,45.5,42.5,29.76,SSW,192,16.4,21.9,89,0.01,CLR,,0.06,0.0,WeatherDisplay:10.37,2013-02-06 02:40:00,
2013-02-05 18:45:00,45.4,42.4,29.77,South,183,11.9,16.1,89,0.01,CLR,,0.06,0.0,WeatherDisplay:10.37,2013-02-06 02:45:00,
2013-02-05 18:50:00,45.4,42.4,29.77,SW,229,15.2,17.3,89,0.00,-RA,,0.06,0.0,WeatherDisplay:10.37,2013-02-06 02:50:00,
2013-02-05 18:55:00,45.0,41.7,29.78,WSW,253,14.7,18.4,88,0.00,-RA,,0.06,0.0,WeatherDisplay:10.37,2013-02-06 02:55:00,
2013-02-05 19:00:00,44.5,40.9,29.77,SW,235,8.9,12.7,87,0.00,-RA,,0.06,0.0,WeatherDisplay:10.37,2013-02-06 03:00:00,
2013-02-05 19:05:00,44.1,40.8,29.77,WSW,237,8.8,10.4,88,0.00,BKN,,0.06,0.0,WeatherDisplay:10.37,2013-02-06 03:05:00,
2013-02-05 19:10:00,43.9,40.6,29.78,SW,228,12.2,16.1,88,0.00,BKN,,0.06,0.0,WeatherDisplay:10.37,2013-02-06 03:10:00,
2013-02-05 19:15:00,43.6,40.3,29.78,South,173,4.0,5.8,88,0.00,BKN,,0.06,0.0,WeatherDisplay:10.37,2013-02-06 03:15:00,
2013-02-05 19:20:00,43.6,40.3,29.79,SSW,209,3.4,5.8,88,0.00,SCT,,0.06,0.0,WeatherDisplay:10.37,2013-02-06 03:20:00,
2013-02-05 19:25:00,43.5,40.5,29.79,SSW,208,6.6,6.9,89,0.00,SCT,,0.06,0.0,WeatherDisplay:10.37,2013-02-06 03:25:00,
2013-02-05 19:30:00,43.4,40.4,29.79,SW,222,2.6,4.6,89,0.00,SCT,,0.06,0.0,WeatherDisplay:10.37,2013-02-06 03:30:00,
2013-02-05 19:35:00,43.4,40.4,29.79,SSW,199,3.6,4.5,89,0.00,SCT,,0.06,0.0,WeatherDisplay:10.37,2013-02-06 03:35:00,
2013-02-05 19:40:00,43.4,40.7,29.79,South,191,2.6,3.5,90,0.00,SCT,,0.06,0.0,WeatherDisplay:10.37,2013-02-06 03:40:00,
2013-02-05 19:45:00,43.4,40.7,29.79,South,185,2.5,4.6,90,0.00,SCT,,0.06,0.0,WeatherDisplay:10.37,2013-02-06 03:45:00,
2013-02-05 19:50:00,43.4,40.7,29.79,South,175,4.8,7.8,90,0.00,SCT,,0.06,0.0,WeatherDisplay:10.37,2013-02-06 03:50:00,
2013-02-05 19:55:00,43.5,41.1,29.79,South,186,5.8,8.1,91,0.00,SCT,,0.06,0.0,WeatherDisplay:10.37,2013-02-06 03:55:00,
2013-02-05 20:00:00,43.6,41.2,29.79,South,171,6.8,13.4,91,0.00,SCT,,0.06,0.0,WeatherDisplay:10.37,2013-02-06 04:00:00,
2013-02-05 20:05:00,43.9,41.7,29.79,South,182,14.8,15.7,92,0.01,-RA,,0.07,0.0,WeatherDisplay:10.37,2013-02-06 04:05:00,
2013-02-05 20:10:00,44.1,41.9,29.80,SSW,203,12.1,16.1,92,0.01,-RA,,0.07,0.0,WeatherDisplay:10.37,2013-02-06 04:10:00,
2013-02-05 20:15:00,44.2,42.0,29.80,SSE,167,9.9,13.4,92,0.02,-RA,,0.08,0.0,WeatherDisplay:10.37,2013-02-06 04:15:00,
2013-02-05 20:20:00,44.2,42.0,29.79,South,171,10.6,12.7,92,0.02,RA,,0.08,0.0,WeatherDisplay:10.37,2013-02-06 04:20:00,
2013-02-05 20:25:00,44.1,41.9,29.80,SSE,159,13.7,18.4,92,0.02,FEW,,0.08,0.0,WeatherDisplay:10.37,2013-02-06 04:25:00,
2013-02-05 20:30:00,44.0,41.8,29.80,SE,141,13.8,17.3,92,0.02,FEW,,0.08,0.0,WeatherDisplay:10.37,2013-02-06 04:30:00,
2013-02-05 20:35:00,43.9,41.7,29.80,South,184,12.9,16.1,92,0.02,FEW,,0.08,0.0,WeatherDisplay:10.37,2013-02-06 04:35:00,
2013-02-05 20:40:00,43.9,41.7,29.81,South,169,8.3,12.7,92,0.02,FEW,,0.08,0.0,WeatherDisplay:10.37,2013-02-06 04:40:00,
2013-02-05 20:45:00,43.8,41.6,29.81,SSW,194,10.4,12.7,92,0.02,FEW,,0.08,0.0,WeatherDisplay:10.37,2013-02-06 04:45:00,
2013-02-05 20:50:00,43.7,41.5,29.82,SSW,192,9.1,10.4,92,0.02,CLR,,0.08,0.0,WeatherDisplay:10.37,2013-02-06 04:50:00,
2013-02-05 20:55:00,43.7,41.5,29.82,SSW,203,6.2,11.5,92,0.02,CLR,,0.08,0.0,WeatherDisplay:10.37,2013-02-06 04:55:00,
2013-02-05 21:00:00,43.6,41.4,29.82,SSW,198,9.2,11.5,92,0.02,CLR,,0.08,0.0,WeatherDisplay:10.37,2013-02-06 05:00:00,
2013-02-05 21:05:00,43.6,41.7,29.82,South,185,6.9,8.1,93,0.01,CLR,,0.08,0.0,WeatherDisplay:10.37,2013-02-06 05:05:00,
2013-02-05 21:10:00,43.5,41.6,29.82,South,173,5.9,10.4,93,0.01,CLR,,0.08,0.0,WeatherDisplay:10.37,2013-02-06 05:10:00,
2013-02-05 21:15:00,43.5,41.6,29.82,South,175,6.1,11.5,93,0.00,CLR,,0.08,0.0,WeatherDisplay:10.37,2013-02-06 05:15:00,
2013-02-05 21:20:00,43.5,41.6,29.82,South,180,6.2,6.7,93,0.00,SCT,,0.08,0.0,WeatherDisplay:10.37,2013-02-06 05:20:00,
2013-02-05 21:25:00,43.5,41.6,29.83,South,183,6.9,8.1,93,0.00,SCT,,0.08,0.0,WeatherDisplay:10.37,2013-02-06 05:25:00,
2013-02-05 21:30:00,43.5,41.6,29.83,South,190,7.4,10.4,93,0.00,SCT,,0.08,0.0,WeatherDisplay:10.37,2013-02-06 05:30:00,
2013-02-05 21:35:00,43.5,41.6,29.83,South,191,6.8,8.1,93,0.00,SCT,,0.08,0.0,WeatherDisplay:10.37,2013-02-06 05:35:00,
2013-02-05 21:40:00,43.5,41.6,29.83,South,177,0.9,3.5,93,0.00,SCT,,0.08,0.0,WeatherDisplay:10.37,2013-02-06 05:40:00,
2013-02-05 21:45:00,43.5,41.6,29.83,South,177,0.0,0.0,93,0.00,SCT,,0.08,0.0,WeatherDisplay:10.37,2013-02-06 05:45:00,
2013-02-05 21:50:00,43.5,41.6,29.83,SSW,203,11.5,12.7,93,0.00,BKN,,0.08,0.0,WeatherDisplay:10.37,2013-02-06 05:50:00,
2013-02-05 21:55:00,43.5,41.6,29.83,South,190,11.2,12.7,93,0.00,BKN,,0.08,0.0,WeatherDisplay:10.37,2013-02-06 05:55:00,
2013-02-05 22:00:00,43.5,41.6,29.83,South,187,8.5,11.5,93,0.00,BKN,,0.08,0.0,WeatherDisplay:10.37,2013-02-06 06:00:00,
2013-02-05 22:05:00,43.6,41.7,29.83,South,188,9.7,12.7,93,0.00,BKN,,0.08,0.0,WeatherDisplay:10.37,2013-02-06 06:05:00,
2013-02-05 22:10:00,43.6,41.7,29.83,South,181,6.8,12.3,93,0.00,BKN,,0.08,0.0,WeatherDisplay:10.37,2013-02-06 06:10:00,
2013-02-05 22:15:00,43.6,41.7,29.84,South,175,7.0,10.4,93,0.00,BKN,,0.08,0.0,WeatherDisplay:10.37,2013-02-06 06:15:00,
2013-02-05 22:20:00,43.7,41.8,29.83,SSE,154,6.5,8.1,93,0.00,OVC,,0.08,0.0,WeatherDisplay:10.37,2013-02-06 06:20:00,
2013-02-05 22:25:00,43.7,41.8,29.84,SSE,154,7.0,7.0,93,0.00,OVC,,0.08,0.0,WeatherDisplay:10.37,2013-02-06 06:25:00,
2013-02-05 22:30:00,43.7,41.8,29.84,South,177,7.2,10.4,93,0.00,OVC,,0.08,0.0,WeatherDisplay:10.37,2013-02-06 06:30:00,
2013-02-05 22:35:00,43.7,41.8,29.85,SSW,192,11.1,15.0,93,0.00,OVC,,0.08,0.0,WeatherDisplay:10.37,2013-02-06 06:35:00,
2013-02-05 22:40:00,43.7,41.8,29.84,SSW,206,13.6,15.0,93,0.01,RA,,0.09,0.0,WeatherDisplay:10.37,2013-02-06 06:40:00,
2013-02-05 22:45:00,43.8,41.9,29.84,SSW,204,14.1,15.0,93,0.02,RA,,0.10,0.0,WeatherDisplay:10.37,2013-02-06 06:45:00,
2013-02-05 22:50:00,43.7,41.8,29.85,SSE,168,14.3,15.0,93,0.02,-RA,,0.10,0.0,WeatherDisplay:10.37,2013-02-06 06:50:00,
2013-02-05 22:55:00,43.7,41.8,29.85,South,190,10.4,12.7,93,0.02,-RA,,0.11,0.0,WeatherDisplay:10.37,2013-02-06 06:55:00,
2013-02-05 23:00:00,43.7,42.1,29.85,SSW,196,10.1,12.7,94,0.03,-RA,,0.11,0.0,WeatherDisplay:10.37,2013-02-06 07:00:00,
2013-02-05 23:05:00,43.7,42.1,29.85,SSW,198,12.5,13.8,94,0.03,RA,,0.11,0.0,WeatherDisplay:10.37,2013-02-06 07:05:00,
2013-02-05 23:10:00,43.6,42.0,29.85,SSW,200,12.2,13.8,94,0.03,OVC,,0.11,0.0,WeatherDisplay:10.37,2013-02-06 07:10:00,
2013-02-05 23:15:00,43.6,42.0,29.86,SSW,200,12.0,12.7,94,0.03,BKN,,0.11,0.0,WeatherDisplay:10.37,2013-02-06 07:15:00,
2013-02-05 23:20:00,43.6,42.0,29.86,SSW,200,12.8,12.8,94,0.03,BKN,,0.11,0.0,WeatherDisplay:10.37,2013-02-06 07:20:00,
2013-02-05 23:25:00,43.6,42.0,29.86,SSW,200,13.6,13.8,94,0.03,BKN,,0.11,0.0,WeatherDisplay:10.37,2013-02-06 07:25:00,
2013-02-05 23:30:00,43.5,41.9,29.86,SSW,196,12.8,17.3,94,0.03,BKN,,0.11,0.0,WeatherDisplay:10.37,2013-02-06 07:30:00,
2013-02-05 23:35:00,43.5,41.9,29.87,SSW,200,14.1,15.0,94,0.03,BKN,,0.11,0.0,WeatherDisplay:10.37,2013-02-06 07:35:00,
2013-02-05 23:40:00,43.5,41.9,29.87,South,184,8.9,13.8,94,0.02,BKN,,0.11,0.0,WeatherDisplay:10.37,2013-02-06 07:40:00,
2013-02-05 23:45:00,43.5,41.9,29.87,South,171,11.1,13.8,94,0.01,RA,,0.11,0.0,WeatherDisplay:10.37,2013-02-06 07:45:00,
2013-02-05 23:50:00,43.5,41.9,29.87,South,178,12.0,12.7,94,0.01,RA,,0.11,0.0,WeatherDisplay:10.37,2013-02-06 07:50:00,
2013-02-05 23:55:00,43.5,41.9,29.87,South,182,13.8,17.3,94,0.01,BKN,,0.11,0.0,WeatherDisplay:10.37,2013-02-06 07:55:00,